Time;durP1;ratioP1;P1;durP2;ratioP2;P2;SDS_P1;SDS_P2;PMS_P1;PMS_P2;Temp;Humidity;BMP_temperature;BMP_pressure;BME280_temperature;BME280_humidity;BME280_pressure;Samples;Min_cycle;Max_cycle;Signal;HPM_P1;HPM_P2
2021/07/02 00:12:43;;;;;;;2.97;2.67;;;;;;;18.88;100.00;99993.09;714402;1200;113941;-74
2021/07/02 00:27:46;;;;;;;2.85;2.40;;;;;;;19.01;100.00;99981.75;714329;1200;114958;-76
2021/07/02 00:42:49;;;;;;;3.40;2.53;;;;;;;18.76;100.00;99985.67;714512;1199;114066;-75
2021/07/02 00:57:51;;;;;;;4.68;3.10;;;;;;;18.50;100.00;99966.93;714413;1199;114544;-75
2021/07/02 01:12:53;;;;;;;8.28;3.28;;;;;;;18.39;100.00;99957.67;714485;1198;114436;-75
2021/07/02 01:27:56;;;;;;;2.90;2.53;;;;;;;18.27;100.00;99954.73;714655;1200;114586;-75
2021/07/02 01:42:59;;;;;;;4.23;3.53;;;;;;;18.07;100.00;99966.02;714888;1199;115193;-75
2021/07/02 01:58:02;;;;;;;4.53;3.17;;;;;;;18.06;100.00;99968.88;714650;1188;113560;-76
2021/07/02 02:13:04;;;;;;;5.63;3.45;;;;;;;18.03;100.00;99969.27;714546;1199;113801;-75
2021/07/02 02:28:06;;;;;;;3.73;3.33;;;;;;;18.01;100.00;99955.36;714162;1199;114359;-75
2021/07/02 02:43:09;;;;;;;3.73;3.13;;;;;;;18.04;100.00;99966.42;714097;1177;114271;-75
2021/07/02 02:58:11;;;;;;;4.53;3.67;;;;;;;18.05;100.00;99976.00;713997;1202;114762;-75
2021/07/02 03:13:13;;;;;;;7.43;4.25;;;;;;;17.99;100.00;99968.83;714017;1200;114181;-75
2021/07/02 03:28:16;;;;;;;5.37;3.90;;;;;;;17.99;100.00;99947.59;713917;1202;115297;-75
2021/07/02 03:43:18;;;;;;;6.85;4.20;;;;;;;17.92;100.00;99942.23;714221;1187;114735;-76
2021/07/02 03:58:20;;;;;;;5.13;4.48;;;;;;;17.98;100.00;99942.48;714248;1199;116424;-77
2021/07/02 04:13:23;;;;;;;7.58;4.15;;;;;;;17.82;100.00;99962.13;714340;1199;113611;-76
2021/07/02 04:28:25;;;;;;;5.25;3.83;;;;;;;17.94;100.00;99965.92;714375;1199;114599;-75
2021/07/02 04:43:27;;;;;;;9.73;4.50;;;;;;;18.18;100.00;99953.25;713949;1199;113737;-76
2021/07/02 04:58:29;;;;;;;4.67;3.90;;;;;;;18.32;100.00;99956.80;713733;1186;114607;-75
2021/07/02 05:13:32;;;;;;;7.35;3.90;;;;;;;18.27;100.00;99971.48;713908;1199;115099;-76
2021/07/02 05:28:35;;;;;;;6.03;4.77;;;;;;;18.32;100.00;99981.53;713830;1203;114464;-76
2021/07/02 05:43:38;;;;;;;9.23;5.43;;;;;;;18.64;100.00;99976.63;713839;1201;115031;-75
2021/07/02 05:58:40;;;;;;;6.98;5.98;;;;;;;18.83;100.00;99974.27;713849;1203;114779;-76
2021/07/02 06:13:43;;;;;;;10.93;6.87;;;;;;;18.73;100.00;99972.78;713953;1200;115224;-76
2021/07/02 06:28:45;;;;;;;8.80;6.98;;;;;;;18.78;100.00;99982.84;714096;1199;114436;-75
2021/07/02 06:43:47;;;;;;;11.23;7.87;;;;;;;18.65;100.00;99983.58;714265;1200;114406;-75
2021/07/02 06:58:51;;;;;;;17.98;12.18;;;;;;;18.66;100.00;99998.52;713951;1200;114061;-83
2021/07/02 07:13:53;;;;;;;14.80;11.63;;;;;;;18.81;100.00;100002.89;716001;1199;114820;-86
2021/07/02 07:28:55;;;;;;;11.93;9.37;;;;;;;19.01;100.00;100014.45;716452;1199;115462;-86
2021/07/02 07:43:57;;;;;;;14.55;8.70;;;;;;;19.15;100.00;100011.84;716013;1206;113966;-81
2021/07/02 07:59:00;;;;;;;14.65;9.45;;;;;;;19.66;100.00;100022.03;715824;1202;113911;-80
2021/07/02 08:14:02;;;;;;;15.55;8.80;;;;;;;19.65;100.00;100011.59;715934;1202;114478;-80
2021/07/02 08:29:23;;;;;;;14.28;9.00;;;;;;;19.56;100.00;100016.30;715777;1179;113977;-79
2021/07/02 08:44:30;;;;;;;16.95;9.65;;;;;;;19.73;100.00;100011.40;715833;1202;114937;-81
2021/07/02 08:59:32;;;;;;;13.95;9.30;;;;;;;19.71;100.00;100022.25;715190;1200;114767;-79
2021/07/02 09:14:35;;;;;;;18.80;12.75;;;;;;;19.85;100.00;100025.80;713960;1203;115165;-80
2021/07/02 09:29:38;;;;;;;18.00;11.73;;;;;;;19.87;100.00;100030.91;714372;1199;114418;-79
2021/07/02 09:44:40;;;;;;;16.00;11.68;;;;;;;20.13;100.00;100023.99;713978;1199;114765;-80
2021/07/02 09:59:42;;;;;;;18.90;12.87;;;;;;;20.63;100.00;100032.34;714174;1200;114150;-80
2021/07/02 10:14:46;;;;;;;17.73;12.28;;;;;;;21.31;100.00;100044.47;714494;1200;114198;-72
2021/07/02 10:29:48;;;;;;;13.20;9.63;;;;;;;21.68;100.00;100042.05;714088;1202;114371;-80
2021/07/02 10:44:59;;;;;;;14.73;9.78;;;;;;;20.77;100.00;100043.81;715501;1199;114770;-88
2021/07/02 11:00:05;;;;;;;15.40;8.55;;;;;;;20.44;100.00;100053.48;717225;1200;114945;-83
2021/07/02 11:15:09;;;;;;;11.65;8.28;;;;;;;21.09;100.00;100044.77;716509;1199;114202;-85
2021/07/02 11:30:21;;;;;;;15.45;10.03;;;;;;;20.85;100.00;100042.78;715447;1188;114028;-77
2021/07/02 11:45:42;;;;;;;14.53;8.93;;;;;;;20.53;100.00;100048.74;714333;1199;115134;-85
2021/07/02 12:00:44;;;;;;;10.40;7.27;;;;;;;20.65;100.00;100045.46;714353;1177;114557;-75
2021/07/02 12:15:59;;;;;;;15.55;10.40;;;;;;;21.31;100.00;100038.33;714108;1200;114579;-76
2021/07/02 12:31:02;;;;;;;14.88;10.80;;;;;;;21.22;100.00;100041.24;714873;1200;114973;-77
2021/07/02 12:46:04;;;;;;;16.00;8.73;;;;;;;21.21;100.00;100036.13;714798;1199;116058;-72
2021/07/02 13:01:08;;;;;;;22.30;13.15;;;;;;;20.93;100.00;100038.05;714641;1203;114746;-73
2021/07/02 13:16:11;;;;;;;11.43;8.58;;;;;;;20.56;100.00;100040.36;713899;1200;116033;-73
2021/07/02 13:31:45;;;;;;;11.85;8.00;;;;;;;20.36;100.00;100045.67;714121;1203;115215;-73
2021/07/02 13:46:58;;;;;;;10.97;7.80;;;;;;;20.08;100.00;100049.36;714388;1202;115103;-74
2021/07/02 14:13:31;;;;;;;13.03;9.55;;;;;;;19.55;100.00;100052.70;717858;1192;23798;-73
2021/07/02 14:28:33;;;;;;;12.50;8.23;;;;;;;19.47;100.00;100060.88;716535;1199;114761;-73
2021/07/02 14:43:35;;;;;;;11.33;8.15;;;;;;;19.17;100.00;100077.09;716037;1200;113604;-77
2021/07/02 14:58:37;;;;;;;13.80;9.20;;;;;;;19.12;100.00;100084.84;715713;1200;113545;-77
2021/07/02 15:13:40;;;;;;;15.45;10.13;;;;;;;19.14;100.00;100082.01;715340;1199;114795;-77
2021/07/02 15:28:42;;;;;;;23.50;15.38;;;;;;;19.19;100.00;100090.19;715489;1200;114363;-78
2021/07/02 15:43:45;;;;;;;11.93;7.93;;;;;;;19.22;100.00;100093.28;715047;1202;115661;-77
2021/07/02 15:58:47;;;;;;;16.38;8.80;;;;;;;19.36;100.00;100094.19;715029;1199;113459;-78
2021/07/02 16:13:51;;;;;;;17.05;15.08;;;;;;;19.22;100.00;100097.80;714906;1203;115012;-77
2021/07/02 16:28:53;;;;;;;36.13;22.53;;;;;;;19.29;100.00;100095.97;714541;1199;114779;-75
2021/07/02 16:43:55;;;;;;;13.43;10.17;;;;;;;19.30;100.00;100086.98;714263;1177;115553;-75
2021/07/02 16:58:57;;;;;;;16.10;9.48;;;;;;;19.15;100.00;100083.63;714614;1200;114342;-77
2021/07/02 17:13:59;;;;;;;9.73;7.23;;;;;;;19.03;100.00;100086.86;714565;1199;115671;-78
2021/07/02 17:29:03;;;;;;;10.53;6.83;;;;;;;18.81;100.00;100093.23;714446;1200;113705;-77
2021/07/02 17:44:06;;;;;;;10.55;6.98;;;;;;;18.69;100.00;100098.25;714713;1189;113783;-80
2021/07/02 17:59:08;;;;;;;9.63;6.60;;;;;;;18.44;100.00;100091.50;716637;1199;114465;-80
2021/07/02 18:14:10;;;;;;;7.38;5.60;;;;;;;18.32;100.00;100089.55;715661;1198;113671;-77
2021/07/02 18:29:13;;;;;;;7.08;3.95;;;;;;;18.18;100.00;100104.55;714504;1177;113802;-77
2021/07/02 18:44:18;;;;;;;7.55;3.70;;;;;;;17.99;100.00;100098.02;714362;1202;115058;-77
2021/07/02 18:59:21;;;;;;;4.25;3.10;;;;;;;17.91;100.00;100107.72;714739;1189;113646;-78
2021/07/02 19:14:26;;;;;;;6.95;3.93;;;;;;;17.84;100.00;100101.50;715215;1202;113645;-78
2021/07/02 19:29:28;;;;;;;4.78;3.33;;;;;;;17.82;100.00;100102.73;715829;1199;114750;-79
2021/07/02 19:44:30;;;;;;;6.48;4.13;;;;;;;17.92;100.00;100103.22;715041;1175;113915;-79
2021/07/02 19:59:33;;;;;;;4.65;2.93;;;;;;;17.94;100.00;100109.21;714874;1176;114374;-79
2021/07/02 20:14:35;;;;;;;6.55;3.18;;;;;;;18.04;100.00;100100.93;714929;1199;115021;-79
2021/07/02 20:29:38;;;;;;;6.85;4.00;;;;;;;18.12;100.00;100091.02;715398;1200;115390;-78
2021/07/02 20:44:40;;;;;;;4.28;3.23;;;;;;;18.11;100.00;100077.95;715688;1174;113501;-79
2021/07/02 20:59:43;;;;;;;3.87;3.30;;;;;;;18.11;100.00;100073.45;714533;1200;113733;-79
2021/07/02 21:14:45;;;;;;;4.75;3.88;;;;;;;18.21;100.00;100078.45;715064;1200;114325;-79
2021/07/02 21:29:48;;;;;;;4.50;4.00;;;;;;;18.18;100.00;100075.35;715534;1200;115102;-79
2021/07/02 21:44:52;;;;;;;6.53;4.23;;;;;;;18.17;100.00;100055.93;715359;1199;113895;-80
2021/07/02 21:59:54;;;;;;;5.95;4.25;;;;;;;18.17;100.00;100076.36;715339;1199;113604;-79
2021/07/02 22:14:56;;;;;;;4.95;3.93;;;;;;;18.21;100.00;100073.14;714713;1199;113516;-79
2021/07/02 22:29:59;;;;;;;5.20;4.33;;;;;;;18.25;100.00;100077.06;714597;1177;113803;-81
2021/07/02 22:45:01;;;;;;;6.28;4.95;;;;;;;18.28;100.00;100078.52;716005;1200;115696;-80
2021/07/02 23:00:06;;;;;;;5.60;5.03;;;;;;;18.35;100.00;100078.56;715560;1174;114335;-80
2021/07/02 23:15:11;;;;;;;6.55;5.00;;;;;;;18.36;100.00;100075.72;715831;1202;113803;-80
2021/07/02 23:30:14;;;;;;;6.63;4.90;;;;;;;18.29;100.00;100078.31;715825;1199;114664;-80
2021/07/02 23:45:16;;;;;;;5.60;5.03;;;;;;;18.35;100.00;100074.06;715598;1200;113993;-81
